sensor_id;sensor_type;location;lat;lon;timestamp;P1;durP1;ratioP1;P2;durP2;ratioP2
870;SDS011;422;51.280;7.236;2022-10-03T00:00:40;6.90;;;4.73;;
870;SDS011;422;51.280;7.236;2022-10-03T00:03:29;10.53;;;5.40;;
870;SDS011;422;51.280;7.236;2022-10-03T00:06:03;8.63;;;5.50;;
870;SDS011;422;51.280;7.236;2022-10-03T00:08:44;16.70;;;6.13;;
870;SDS011;422;51.280;7.236;2022-10-03T00:11:26;10.90;;;5.60;;
870;SDS011;422;51.280;7.236;2022-10-03T00:14:08;11.93;;;5.37;;
870;SDS011;422;51.280;7.236;2022-10-03T00:16:44;8.80;;;5.57;;
870;SDS011;422;51.280;7.236;2022-10-03T00:19:23;10.23;;;4.60;;
870;SDS011;422;51.280;7.236;2022-10-03T00:22:03;10.87;;;6.03;;
870;SDS011;422;51.280;7.236;2022-10-03T00:24:46;7.70;;;4.93;;
870;SDS011;422;51.280;7.236;2022-10-03T00:27:31;9.97;;;5.07;;
870;SDS011;422;51.280;7.236;2022-10-03T00:30:15;8.30;;;5.57;;
870;SDS011;422;51.280;7.236;2022-10-03T00:32:58;13.60;;;6.20;;
870;SDS011;422;51.280;7.236;2022-10-03T00:35:47;14.93;;;5.97;;
870;SDS011;422;51.280;7.236;2022-10-03T00:41:29;6.53;;;5.10;;
870;SDS011;422;51.280;7.236;2022-10-03T00:44:25;11.13;;;5.87;;
870;SDS011;422;51.280;7.236;2022-10-03T00:47:20;8.90;;;5.80;;
870;SDS011;422;51.280;7.236;2022-10-03T00:53:12;10.53;;;4.90;;
870;SDS011;422;51.280;7.236;2022-10-03T00:58:56;11.90;;;5.20;;
870;SDS011;422;51.280;7.236;2022-10-03T01:01:37;9.37;;;5.20;;
870;SDS011;422;51.280;7.236;2022-10-03T01:07:15;7.13;;;5.27;;
870;SDS011;422;51.280;7.236;2022-10-03T01:10:05;7.17;;;4.60;;
870;SDS011;422;51.280;7.236;2022-10-03T01:15:42;7.13;;;4.90;;
870;SDS011;422;51.280;7.236;2022-10-03T01:18:18;10.13;;;5.30;;
870;SDS011;422;51.280;7.236;2022-10-03T01:20:53;6.63;;;4.90;;
870;SDS011;422;51.280;7.236;2022-10-03T01:29:29;5.77;;;4.70;;
870;SDS011;422;51.280;7.236;2022-10-03T01:32:34;6.53;;;4.60;;
870;SDS011;422;51.280;7.236;2022-10-03T01:35:09;5.30;;;4.03;;
870;SDS011;422;51.280;7.236;2022-10-03T01:37:47;11.30;;;6.40;;
870;SDS011;422;51.280;7.236;2022-10-03T01:40:27;11.07;;;5.47;;
870;SDS011;422;51.280;7.236;2022-10-03T01:43:01;7.53;;;4.73;;
870;SDS011;422;51.280;7.236;2022-10-03T01:45:39;9.40;;;4.80;;
870;SDS011;422;51.280;7.236;2022-10-03T01:48:15;6.80;;;5.13;;
870;SDS011;422;51.280;7.236;2022-10-03T01:50:53;10.83;;;4.70;;
870;SDS011;422;51.280;7.236;2022-10-03T01:53:30;10.13;;;4.40;;
870;SDS011;422;51.280;7.236;2022-10-03T01:56:06;5.37;;;4.07;;
870;SDS011;422;51.280;7.236;2022-10-03T01:58:41;7.27;;;4.90;;
870;SDS011;422;51.280;7.236;2022-10-03T02:01:24;7.30;;;5.00;;
870;SDS011;422;51.280;7.236;2022-10-03T02:03:59;10.60;;;4.90;;
870;SDS011;422;51.280;7.236;2022-10-03T02:06:35;7.10;;;4.60;;
870;SDS011;422;51.280;7.236;2022-10-03T02:09:14;7.97;;;5.20;;
870;SDS011;422;51.280;7.236;2022-10-03T02:11:56;9.20;;;4.77;;
870;SDS011;422;51.280;7.236;2022-10-03T02:14:31;7.77;;;4.03;;
870;SDS011;422;51.280;7.236;2022-10-03T02:17:17;7.70;;;4.57;;
870;SDS011;422;51.280;7.236;2022-10-03T02:19:56;8.20;;;5.10;;
870;SDS011;422;51.280;7.236;2022-10-03T02:22:35;8.13;;;4.90;;
870;SDS011;422;51.280;7.236;2022-10-03T02:25:13;6.93;;;5.20;;
870;SDS011;422;51.280;7.236;2022-10-03T02:28:01;7.23;;;4.67;;
870;SDS011;422;51.280;7.236;2022-10-03T02:30:45;7.00;;;5.30;;
870;SDS011;422;51.280;7.236;2022-10-03T02:33:38;7.13;;;5.03;;
870;SDS011;422;51.280;7.236;2022-10-03T02:36:26;6.37;;;4.40;;
870;SDS011;422;51.280;7.236;2022-10-03T02:42:30;10.20;;;4.70;;
870;SDS011;422;51.280;7.236;2022-10-03T02:48:26;10.43;;;4.77;;
870;SDS011;422;51.280;7.236;2022-10-03T02:57:42;8.37;;;4.53;;
870;SDS011;422;51.280;7.236;2022-10-03T03:00:31;7.77;;;4.70;;
870;SDS011;422;51.280;7.236;2022-10-03T03:06:44;6.50;;;4.53;;
870;SDS011;422;51.280;7.236;2022-10-03T03:09:38;10.00;;;5.03;;
870;SDS011;422;51.280;7.236;2022-10-03T03:12:43;7.30;;;4.90;;
870;SDS011;422;51.280;7.236;2022-10-03T03:18:41;7.03;;;4.73;;
870;SDS011;422;51.280;7.236;2022-10-03T03:21:17;8.40;;;4.07;;
870;SDS011;422;51.280;7.236;2022-10-03T03:24:03;5.53;;;4.30;;
870;SDS011;422;51.280;7.236;2022-10-03T03:27:02;5.37;;;4.37;;
870;SDS011;422;51.280;7.236;2022-10-03T03:29:46;6.30;;;4.97;;
870;SDS011;422;51.280;7.236;2022-10-03T03:32:23;6.60;;;4.50;;
870;SDS011;422;51.280;7.236;2022-10-03T03:35:02;4.97;;;3.80;;
870;SDS011;422;51.280;7.236;2022-10-03T03:37:42;11.20;;;4.47;;
870;SDS011;422;51.280;7.236;2022-10-03T03:40:24;6.10;;;4.00;;
870;SDS011;422;51.280;7.236;2022-10-03T03:43:11;8.40;;;4.90;;
870;SDS011;422;51.280;7.236;2022-10-03T03:46:05;6.13;;;4.47;;
870;SDS011;422;51.280;7.236;2022-10-03T03:51:46;6.17;;;4.17;;
870;SDS011;422;51.280;7.236;2022-10-03T03:54:30;5.63;;;4.33;;
870;SDS011;422;51.280;7.236;2022-10-03T04:00:29;10.07;;;5.47;;
870;SDS011;422;51.280;7.236;2022-10-03T04:03:28;8.50;;;5.50;;
870;SDS011;422;51.280;7.236;2022-10-03T04:06:11;11.07;;;5.60;;
870;SDS011;422;51.280;7.236;2022-10-03T04:08:52;6.50;;;5.33;;
870;SDS011;422;51.280;7.236;2022-10-03T04:11:41;8.27;;;5.40;;
870;SDS011;422;51.280;7.236;2022-10-03T04:17:26;7.10;;;5.30;;
870;SDS011;422;51.280;7.236;2022-10-03T04:20:26;8.53;;;5.77;;
870;SDS011;422;51.280;7.236;2022-10-03T04:23:19;10.03;;;4.97;;
870;SDS011;422;51.280;7.236;2022-10-03T04:25:59;8.27;;;5.50;;
870;SDS011;422;51.280;7.236;2022-10-03T04:28:48;7.20;;;5.73;;
870;SDS011;422;51.280;7.236;2022-10-03T04:31:51;9.77;;;5.40;;
870;SDS011;422;51.280;7.236;2022-10-03T04:34:36;7.33;;;6.07;;
870;SDS011;422;51.280;7.236;2022-10-03T04:37:20;8.47;;;5.47;;
870;SDS011;422;51.280;7.236;2022-10-03T04:39:56;10.90;;;5.53;;
870;SDS011;422;51.280;7.236;2022-10-03T04:42:36;12.90;;;5.80;;
870;SDS011;422;51.280;7.236;2022-10-03T04:45:17;9.87;;;5.93;;
870;SDS011;422;51.280;7.236;2022-10-03T04:48:04;9.80;;;5.37;;
870;SDS011;422;51.280;7.236;2022-10-03T04:50:43;13.13;;;6.30;;
870;SDS011;422;51.280;7.236;2022-10-03T04:53:21;10.60;;;6.50;;
870;SDS011;422;51.280;7.236;2022-10-03T04:55:59;17.40;;;6.63;;
870;SDS011;422;51.280;7.236;2022-10-03T04:58:38;8.03;;;6.17;;
870;SDS011;422;51.280;7.236;2022-10-03T05:01:14;11.90;;;6.67;;
870;SDS011;422;51.280;7.236;2022-10-03T05:03:52;9.27;;;5.90;;
870;SDS011;422;51.280;7.236;2022-10-03T05:06:34;11.60;;;6.50;;
870;SDS011;422;51.280;7.236;2022-10-03T05:09:17;10.20;;;6.10;;
870;SDS011;422;51.280;7.236;2022-10-03T05:12:01;10.67;;;6.73;;
870;SDS011;422;51.280;7.236;2022-10-03T05:17:35;11.30;;;6.40;;
870;SDS011;422;51.280;7.236;2022-10-03T05:20:19;7.87;;;5.30;;
870;SDS011;422;51.280;7.236;2022-10-03T05:23:00;15.40;;;6.77;;
870;SDS011;422;51.280;7.236;2022-10-03T05:25:39;12.23;;;6.77;;
870;SDS011;422;51.280;7.236;2022-10-03T05:28:14;8.23;;;6.83;;
870;SDS011;422;51.280;7.236;2022-10-03T05:30:52;10.37;;;6.53;;
870;SDS011;422;51.280;7.236;2022-10-03T05:33:28;11.70;;;6.60;;
870;SDS011;422;51.280;7.236;2022-10-03T05:36:14;11.20;;;6.00;;
870;SDS011;422;51.280;7.236;2022-10-03T05:41:55;14.80;;;6.50;;
870;SDS011;422;51.280;7.236;2022-10-03T05:44:50;12.00;;;7.30;;
870;SDS011;422;51.280;7.236;2022-10-03T05:47:27;12.07;;;7.97;;
870;SDS011;422;51.280;7.236;2022-10-03T05:56:46;12.07;;;7.90;;
870;SDS011;422;51.280;7.236;2022-10-03T05:59:42;10.90;;;7.63;;
870;SDS011;422;51.280;7.236;2022-10-03T06:02:51;11.40;;;7.13;;
870;SDS011;422;51.280;7.236;2022-10-03T06:05:31;13.33;;;7.93;;
870;SDS011;422;51.280;7.236;2022-10-03T06:14:36;20.57;;;9.20;;
870;SDS011;422;51.280;7.236;2022-10-03T06:23:37;12.23;;;8.00;;
870;SDS011;422;51.280;7.236;2022-10-03T06:35:55;13.73;;;8.67;;
870;SDS011;422;51.280;7.236;2022-10-03T06:48:18;10.60;;;8.00;;
870;SDS011;422;51.280;7.236;2022-10-03T06:51:07;15.07;;;9.07;;
870;SDS011;422;51.280;7.236;2022-10-03T06:54:03;16.93;;;9.83;;
870;SDS011;422;51.280;7.236;2022-10-03T06:57:00;15.60;;;10.10;;
870;SDS011;422;51.280;7.236;2022-10-03T06:59:43;14.97;;;9.83;;
870;SDS011;422;51.280;7.236;2022-10-03T07:02:27;18.60;;;10.63;;
870;SDS011;422;51.280;7.236;2022-10-03T07:05:30;14.27;;;9.37;;
870;SDS011;422;51.280;7.236;2022-10-03T07:08:35;17.23;;;10.43;;
870;SDS011;422;51.280;7.236;2022-10-03T07:11:38;15.77;;;9.83;;
870;SDS011;422;51.280;7.236;2022-10-03T07:17:49;15.77;;;11.50;;
870;SDS011;422;51.280;7.236;2022-10-03T07:20:54;16.73;;;10.57;;
870;SDS011;422;51.280;7.236;2022-10-03T07:27:11;15.30;;;10.67;;
870;SDS011;422;51.280;7.236;2022-10-03T07:32:41;14.57;;;10.47;;
870;SDS011;422;51.280;7.236;2022-10-03T07:38:59;14.30;;;10.50;;
870;SDS011;422;51.280;7.236;2022-10-03T07:41:39;20.77;;;10.00;;
870;SDS011;422;51.280;7.236;2022-10-03T07:44:38;16.73;;;10.87;;
870;SDS011;422;51.280;7.236;2022-10-03T07:47:31;20.20;;;10.67;;
870;SDS011;422;51.280;7.236;2022-10-03T07:50:35;12.63;;;10.27;;
870;SDS011;422;51.280;7.236;2022-10-03T07:56:28;15.20;;;9.50;;
870;SDS011;422;51.280;7.236;2022-10-03T07:59:22;16.10;;;10.97;;
870;SDS011;422;51.280;7.236;2022-10-03T08:05:39;19.43;;;11.30;;
870;SDS011;422;51.280;7.236;2022-10-03T08:08:19;17.70;;;13.40;;
870;SDS011;422;51.280;7.236;2022-10-03T08:11:10;21.60;;;13.63;;
870;SDS011;422;51.280;7.236;2022-10-03T08:14:06;20.33;;;13.47;;
870;SDS011;422;51.280;7.236;2022-10-03T08:20:02;24.37;;;13.50;;
870;SDS011;422;51.280;7.236;2022-10-03T08:22:50;23.80;;;13.80;;
870;SDS011;422;51.280;7.236;2022-10-03T08:25:28;15.50;;;11.60;;
870;SDS011;422;51.280;7.236;2022-10-03T08:28:23;16.93;;;11.70;;
870;SDS011;422;51.280;7.236;2022-10-03T08:31:16;19.70;;;13.87;;
870;SDS011;422;51.280;7.236;2022-10-03T08:34:13;18.27;;;11.77;;
870;SDS011;422;51.280;7.236;2022-10-03T08:40:02;19.13;;;12.60;;
870;SDS011;422;51.280;7.236;2022-10-03T08:43:08;19.90;;;13.13;;
870;SDS011;422;51.280;7.236;2022-10-03T08:46:05;15.63;;;11.40;;
870;SDS011;422;51.280;7.236;2022-10-03T08:48:45;17.17;;;11.10;;
870;SDS011;422;51.280;7.236;2022-10-03T08:51:48;19.77;;;12.43;;
870;SDS011;422;51.280;7.236;2022-10-03T08:54:39;13.83;;;11.10;;
870;SDS011;422;51.280;7.236;2022-10-03T08:57:38;16.87;;;12.17;;
870;SDS011;422;51.280;7.236;2022-10-03T09:00:45;20.17;;;11.73;;
870;SDS011;422;51.280;7.236;2022-10-03T09:13:32;17.23;;;11.20;;
870;SDS011;422;51.280;7.236;2022-10-03T09:22:48;17.10;;;12.07;;
870;SDS011;422;51.280;7.236;2022-10-03T09:25:30;15.23;;;11.90;;
870;SDS011;422;51.280;7.236;2022-10-03T09:31:28;18.00;;;10.37;;
870;SDS011;422;51.280;7.236;2022-10-03T09:37:39;12.77;;;7.87;;
870;SDS011;422;51.280;7.236;2022-10-03T09:46:46;14.90;;;8.00;;
870;SDS011;422;51.280;7.236;2022-10-03T09:53:02;13.23;;;9.40;;
870;SDS011;422;51.280;7.236;2022-10-03T09:59:06;11.67;;;6.60;;
870;SDS011;422;51.280;7.236;2022-10-03T10:01:55;12.50;;;7.03;;
870;SDS011;422;51.280;7.236;2022-10-03T10:04:44;11.63;;;5.93;;
870;SDS011;422;51.280;7.236;2022-10-03T10:07:29;5.40;;;4.17;;
870;SDS011;422;51.280;7.236;2022-10-03T10:16:44;8.10;;;2.90;;
870;SDS011;422;51.280;7.236;2022-10-03T10:19:29;6.93;;;3.60;;
870;SDS011;422;51.280;7.236;2022-10-03T10:22:31;6.70;;;3.93;;
870;SDS011;422;51.280;7.236;2022-10-03T10:25:43;9.77;;;5.00;;
870;SDS011;422;51.280;7.236;2022-10-03T10:28:51;8.47;;;3.60;;
870;SDS011;422;51.280;7.236;2022-10-03T10:35:15;7.83;;;4.00;;
870;SDS011;422;51.280;7.236;2022-10-03T10:47:56;11.87;;;3.57;;
870;SDS011;422;51.280;7.236;2022-10-03T10:50:55;11.13;;;4.43;;
870;SDS011;422;51.280;7.236;2022-10-03T10:54:09;8.43;;;3.77;;
870;SDS011;422;51.280;7.236;2022-10-03T10:57:08;6.20;;;2.70;;
870;SDS011;422;51.280;7.236;2022-10-03T11:00:16;5.43;;;4.30;;
870;SDS011;422;51.280;7.236;2022-10-03T11:03:08;6.80;;;2.43;;
870;SDS011;422;51.280;7.236;2022-10-03T11:09:33;3.93;;;2.70;;
870;SDS011;422;51.280;7.236;2022-10-03T11:12:25;7.50;;;2.40;;
870;SDS011;422;51.280;7.236;2022-10-03T11:18:57;5.93;;;2.77;;
870;SDS011;422;51.280;7.236;2022-10-03T11:22:15;7.40;;;2.83;;
870;SDS011;422;51.280;7.236;2022-10-03T11:25:24;6.23;;;2.50;;
870;SDS011;422;51.280;7.236;2022-10-03T11:37:44;6.23;;;3.40;;
870;SDS011;422;51.280;7.236;2022-10-03T11:40:23;9.27;;;3.60;;
870;SDS011;422;51.280;7.236;2022-10-03T11:43:02;7.83;;;4.47;;
870;SDS011;422;51.280;7.236;2022-10-03T11:45:53;4.33;;;2.53;;
870;SDS011;422;51.280;7.236;2022-10-03T11:48:33;5.30;;;2.60;;
870;SDS011;422;51.280;7.236;2022-10-03T11:51:06;6.03;;;2.70;;
870;SDS011;422;51.280;7.236;2022-10-03T11:53:50;8.10;;;2.80;;
870;SDS011;422;51.280;7.236;2022-10-03T11:56:30;8.27;;;2.73;;
870;SDS011;422;51.280;7.236;2022-10-03T11:59:08;3.57;;;2.50;;
870;SDS011;422;51.280;7.236;2022-10-03T12:02:13;6.47;;;2.40;;
870;SDS011;422;51.280;7.236;2022-10-03T12:04:55;4.80;;;2.90;;
870;SDS011;422;51.280;7.236;2022-10-03T12:07:35;4.93;;;2.97;;
870;SDS011;422;51.280;7.236;2022-10-03T12:10:34;6.43;;;2.80;;
870;SDS011;422;51.280;7.236;2022-10-03T12:13:11;4.63;;;2.80;;
870;SDS011;422;51.280;7.236;2022-10-03T12:15:42;7.30;;;3.30;;
870;SDS011;422;51.280;7.236;2022-10-03T12:18:13;5.73;;;3.10;;
870;SDS011;422;51.280;7.236;2022-10-03T12:20:59;5.80;;;2.60;;
870;SDS011;422;51.280;7.236;2022-10-03T12:26:44;5.77;;;3.27;;
870;SDS011;422;51.280;7.236;2022-10-03T12:29:19;11.67;;;3.53;;
870;SDS011;422;51.280;7.236;2022-10-03T12:31:51;10.40;;;3.33;;
870;SDS011;422;51.280;7.236;2022-10-03T12:34:35;4.50;;;2.93;;
870;SDS011;422;51.280;7.236;2022-10-03T12:37:22;6.50;;;3.00;;
870;SDS011;422;51.280;7.236;2022-10-03T12:40:10;6.77;;;3.00;;
870;SDS011;422;51.280;7.236;2022-10-03T12:42:46;5.87;;;3.60;;
870;SDS011;422;51.280;7.236;2022-10-03T12:45:23;6.37;;;2.97;;
870;SDS011;422;51.280;7.236;2022-10-03T12:47:58;3.97;;;2.83;;
870;SDS011;422;51.280;7.236;2022-10-03T12:50:37;4.37;;;3.03;;
870;SDS011;422;51.280;7.236;2022-10-03T12:53:26;5.33;;;2.97;;
870;SDS011;422;51.280;7.236;2022-10-03T12:56:19;8.57;;;3.73;;
870;SDS011;422;51.280;7.236;2022-10-03T12:58:58;4.57;;;3.03;;
870;SDS011;422;51.280;7.236;2022-10-03T13:01:43;4.90;;;2.80;;
870;SDS011;422;51.280;7.236;2022-10-03T13:04:31;9.10;;;3.03;;
870;SDS011;422;51.280;7.236;2022-10-03T13:07:14;5.67;;;2.77;;
870;SDS011;422;51.280;7.236;2022-10-03T13:10:02;3.83;;;3.20;;
870;SDS011;422;51.280;7.236;2022-10-03T13:12:43;6.90;;;3.70;;
870;SDS011;422;51.280;7.236;2022-10-03T13:18:16;5.03;;;2.93;;
870;SDS011;422;51.280;7.236;2022-10-03T13:21:10;6.63;;;2.80;;
870;SDS011;422;51.280;7.236;2022-10-03T13:23:44;4.20;;;2.30;;
870;SDS011;422;51.280;7.236;2022-10-03T13:26:19;6.30;;;3.60;;
870;SDS011;422;51.280;7.236;2022-10-03T13:34:49;5.10;;;2.73;;
870;SDS011;422;51.280;7.236;2022-10-03T13:37:24;7.90;;;3.70;;
870;SDS011;422;51.280;7.236;2022-10-03T13:40:03;4.70;;;3.13;;
870;SDS011;422;51.280;7.236;2022-10-03T13:42:36;4.00;;;2.83;;
870;SDS011;422;51.280;7.236;2022-10-03T13:45:10;7.47;;;4.17;;
870;SDS011;422;51.280;7.236;2022-10-03T13:47:43;4.97;;;3.80;;
870;SDS011;422;51.280;7.236;2022-10-03T13:50:19;4.87;;;2.73;;
870;SDS011;422;51.280;7.236;2022-10-03T13:52:54;5.70;;;3.43;;
870;SDS011;422;51.280;7.236;2022-10-03T13:55:28;5.07;;;3.40;;
870;SDS011;422;51.280;7.236;2022-10-03T14:01:09;9.90;;;4.30;;
870;SDS011;422;51.280;7.236;2022-10-03T14:03:52;6.20;;;3.20;;
870;SDS011;422;51.280;7.236;2022-10-03T14:06:35;7.30;;;3.43;;
870;SDS011;422;51.280;7.236;2022-10-03T14:11:59;7.30;;;3.73;;
870;SDS011;422;51.280;7.236;2022-10-03T14:17:37;6.77;;;3.83;;
870;SDS011;422;51.280;7.236;2022-10-03T14:20:19;4.70;;;2.83;;
870;SDS011;422;51.280;7.236;2022-10-03T14:23:14;5.77;;;3.67;;
870;SDS011;422;51.280;7.236;2022-10-03T14:25:51;7.30;;;4.40;;
870;SDS011;422;51.280;7.236;2022-10-03T14:28:25;6.80;;;4.00;;
870;SDS011;422;51.280;7.236;2022-10-03T14:30:59;3.90;;;3.17;;
870;SDS011;422;51.280;7.236;2022-10-03T14:33:39;3.87;;;3.27;;
870;SDS011;422;51.280;7.236;2022-10-03T14:36:17;4.80;;;3.10;;
870;SDS011;422;51.280;7.236;2022-10-03T14:39:03;4.80;;;3.10;;
870;SDS011;422;51.280;7.236;2022-10-03T14:41:48;5.00;;;3.17;;
870;SDS011;422;51.280;7.236;2022-10-03T14:44:53;7.47;;;3.67;;
870;SDS011;422;51.280;7.236;2022-10-03T14:47:24;9.20;;;3.23;;
870;SDS011;422;51.280;7.236;2022-10-03T14:49:57;4.33;;;3.47;;
870;SDS011;422;51.280;7.236;2022-10-03T14:52:27;6.47;;;3.83;;
870;SDS011;422;51.280;7.236;2022-10-03T14:55:11;8.20;;;3.93;;
870;SDS011;422;51.280;7.236;2022-10-03T14:57:43;5.67;;;3.80;;
870;SDS011;422;51.280;7.236;2022-10-03T15:00:23;6.20;;;3.93;;
870;SDS011;422;51.280;7.236;2022-10-03T15:03:11;6.93;;;2.90;;
870;SDS011;422;51.280;7.236;2022-10-03T15:05:50;5.80;;;3.63;;
870;SDS011;422;51.280;7.236;2022-10-03T15:08:25;5.60;;;3.77;;
870;SDS011;422;51.280;7.236;2022-10-03T15:11:04;7.33;;;3.97;;
870;SDS011;422;51.280;7.236;2022-10-03T15:13:34;4.60;;;2.83;;
870;SDS011;422;51.280;7.236;2022-10-03T15:16:06;5.97;;;3.20;;
870;SDS011;422;51.280;7.236;2022-10-03T15:18:38;6.10;;;3.37;;
870;SDS011;422;51.280;7.236;2022-10-03T15:21:13;6.20;;;3.30;;
870;SDS011;422;51.280;7.236;2022-10-03T15:23:42;9.40;;;4.57;;
870;SDS011;422;51.280;7.236;2022-10-03T15:26:13;8.90;;;4.60;;
870;SDS011;422;51.280;7.236;2022-10-03T15:28:43;4.90;;;2.80;;
870;SDS011;422;51.280;7.236;2022-10-03T15:31:17;5.63;;;3.20;;
870;SDS011;422;51.280;7.236;2022-10-03T15:33:54;9.93;;;3.60;;
870;SDS011;422;51.280;7.236;2022-10-03T15:36:27;6.43;;;3.00;;
870;SDS011;422;51.280;7.236;2022-10-03T15:39:03;5.30;;;2.87;;
870;SDS011;422;51.280;7.236;2022-10-03T15:41:34;5.37;;;3.10;;
870;SDS011;422;51.280;7.236;2022-10-03T15:44:14;4.97;;;2.90;;
870;SDS011;422;51.280;7.236;2022-10-03T15:46:47;4.13;;;3.10;;
870;SDS011;422;51.280;7.236;2022-10-03T15:49:18;4.47;;;3.23;;
870;SDS011;422;51.280;7.236;2022-10-03T15:51:53;8.77;;;3.20;;
870;SDS011;422;51.280;7.236;2022-10-03T15:54:22;7.07;;;3.13;;
870;SDS011;422;51.280;7.236;2022-10-03T15:57:01;6.03;;;3.30;;
870;SDS011;422;51.280;7.236;2022-10-03T15:59:32;4.60;;;3.10;;
870;SDS011;422;51.280;7.236;2022-10-03T16:02:05;7.87;;;3.20;;
870;SDS011;422;51.280;7.236;2022-10-03T16:04:37;3.80;;;2.90;;
870;SDS011;422;51.280;7.236;2022-10-03T16:07:11;4.83;;;3.07;;
870;SDS011;422;51.280;7.236;2022-10-03T16:09:49;4.67;;;3.10;;
870;SDS011;422;51.280;7.236;2022-10-03T16:12:31;4.47;;;3.00;;
870;SDS011;422;51.280;7.236;2022-10-03T16:15:17;5.10;;;2.60;;
870;SDS011;422;51.280;7.236;2022-10-03T16:17:48;4.43;;;2.80;;
870;SDS011;422;51.280;7.236;2022-10-03T16:20:21;4.50;;;3.20;;
870;SDS011;422;51.280;7.236;2022-10-03T16:22:55;8.37;;;4.00;;
870;SDS011;422;51.280;7.236;2022-10-03T16:25:24;3.77;;;3.20;;
870;SDS011;422;51.280;7.236;2022-10-03T16:27:56;9.03;;;4.10;;
870;SDS011;422;51.280;7.236;2022-10-03T16:30:27;5.33;;;3.50;;
870;SDS011;422;51.280;7.236;2022-10-03T16:33:02;7.33;;;3.50;;
870;SDS011;422;51.280;7.236;2022-10-03T16:35:37;5.67;;;3.30;;
870;SDS011;422;51.280;7.236;2022-10-03T16:38:16;6.67;;;4.60;;
870;SDS011;422;51.280;7.236;2022-10-03T16:40:56;3.93;;;3.40;;
870;SDS011;422;51.280;7.236;2022-10-03T16:43:27;6.40;;;3.47;;
870;SDS011;422;51.280;7.236;2022-10-03T16:45:58;5.70;;;4.23;;
870;SDS011;422;51.280;7.236;2022-10-03T16:48:31;6.60;;;4.53;;
870;SDS011;422;51.280;7.236;2022-10-03T16:51:20;4.77;;;3.80;;
870;SDS011;422;51.280;7.236;2022-10-03T16:53:52;7.03;;;4.13;;
870;SDS011;422;51.280;7.236;2022-10-03T16:56:22;4.07;;;3.53;;
870;SDS011;422;51.280;7.236;2022-10-03T16:58:58;6.77;;;3.73;;
870;SDS011;422;51.280;7.236;2022-10-03T17:01:31;5.10;;;3.30;;
870;SDS011;422;51.280;7.236;2022-10-03T17:04:11;5.20;;;3.70;;
870;SDS011;422;51.280;7.236;2022-10-03T17:06:43;7.80;;;4.33;;
870;SDS011;422;51.280;7.236;2022-10-03T17:09:17;7.80;;;4.97;;
870;SDS011;422;51.280;7.236;2022-10-03T17:11:51;6.80;;;5.00;;
870;SDS011;422;51.280;7.236;2022-10-03T17:14:23;9.23;;;6.10;;
870;SDS011;422;51.280;7.236;2022-10-03T17:16:54;7.37;;;5.10;;
870;SDS011;422;51.280;7.236;2022-10-03T17:19:28;5.67;;;5.13;;
870;SDS011;422;51.280;7.236;2022-10-03T17:22:04;6.90;;;5.10;;
870;SDS011;422;51.280;7.236;2022-10-03T17:24:41;8.00;;;5.93;;
870;SDS011;422;51.280;7.236;2022-10-03T17:27:17;8.90;;;5.93;;
870;SDS011;422;51.280;7.236;2022-10-03T17:29:53;10.80;;;6.10;;
870;SDS011;422;51.280;7.236;2022-10-03T17:32:26;11.77;;;7.60;;
870;SDS011;422;51.280;7.236;2022-10-03T17:35:00;9.73;;;6.97;;
870;SDS011;422;51.280;7.236;2022-10-03T17:37:41;9.90;;;6.33;;
870;SDS011;422;51.280;7.236;2022-10-03T17:40:27;9.63;;;5.73;;
870;SDS011;422;51.280;7.236;2022-10-03T17:43:15;9.13;;;6.50;;
870;SDS011;422;51.280;7.236;2022-10-03T17:45:52;8.20;;;5.70;;
870;SDS011;422;51.280;7.236;2022-10-03T17:48:32;9.00;;;7.27;;
870;SDS011;422;51.280;7.236;2022-10-03T17:51:10;7.40;;;6.10;;
870;SDS011;422;51.280;7.236;2022-10-03T17:53:53;13.57;;;11.20;;
870;SDS011;422;51.280;7.236;2022-10-03T17:56:23;13.17;;;11.00;;
870;SDS011;422;51.280;7.236;2022-10-03T17:58:55;11.03;;;8.10;;
870;SDS011;422;51.280;7.236;2022-10-03T18:01:29;11.27;;;10.13;;
870;SDS011;422;51.280;7.236;2022-10-03T18:04:01;14.63;;;11.23;;
870;SDS011;422;51.280;7.236;2022-10-03T18:06:35;15.90;;;10.80;;
870;SDS011;422;51.280;7.236;2022-10-03T18:09:20;13.13;;;10.20;;
870;SDS011;422;51.280;7.236;2022-10-03T18:12:07;15.00;;;9.20;;
870;SDS011;422;51.280;7.236;2022-10-03T18:14:43;11.23;;;7.53;;
870;SDS011;422;51.280;7.236;2022-10-03T18:17:35;11.00;;;8.60;;
870;SDS011;422;51.280;7.236;2022-10-03T18:20:27;10.13;;;6.40;;
870;SDS011;422;51.280;7.236;2022-10-03T18:23:06;6.43;;;5.77;;
870;SDS011;422;51.280;7.236;2022-10-03T18:25:47;7.70;;;6.97;;
870;SDS011;422;51.280;7.236;2022-10-03T18:28:26;14.10;;;9.70;;
870;SDS011;422;51.280;7.236;2022-10-03T18:30:58;10.90;;;8.50;;
870;SDS011;422;51.280;7.236;2022-10-03T18:33:34;11.40;;;7.47;;
870;SDS011;422;51.280;7.236;2022-10-03T18:36:16;9.50;;;7.37;;
870;SDS011;422;51.280;7.236;2022-10-03T18:38:48;10.80;;;7.13;;
870;SDS011;422;51.280;7.236;2022-10-03T18:41:18;8.30;;;7.37;;
870;SDS011;422;51.280;7.236;2022-10-03T18:43:50;8.90;;;6.80;;
870;SDS011;422;51.280;7.236;2022-10-03T18:46:23;9.50;;;7.13;;
870;SDS011;422;51.280;7.236;2022-10-03T18:49:00;12.17;;;7.90;;
870;SDS011;422;51.280;7.236;2022-10-03T18:51:31;9.67;;;6.70;;
870;SDS011;422;51.280;7.236;2022-10-03T18:54:04;9.80;;;8.40;;
870;SDS011;422;51.280;7.236;2022-10-03T18:56:45;14.00;;;8.77;;
870;SDS011;422;51.280;7.236;2022-10-03T18:59:28;16.93;;;8.83;;
870;SDS011;422;51.280;7.236;2022-10-03T19:02:01;18.27;;;9.03;;
870;SDS011;422;51.280;7.236;2022-10-03T19:04:35;10.17;;;7.30;;
870;SDS011;422;51.280;7.236;2022-10-03T19:07:16;9.70;;;7.67;;
870;SDS011;422;51.280;7.236;2022-10-03T19:10:09;11.33;;;10.23;;
870;SDS011;422;51.280;7.236;2022-10-03T19:13:10;15.73;;;9.77;;
870;SDS011;422;51.280;7.236;2022-10-03T19:16:03;12.57;;;8.03;;
870;SDS011;422;51.280;7.236;2022-10-03T19:18:40;13.47;;;7.70;;
870;SDS011;422;51.280;7.236;2022-10-03T19:21:14;8.47;;;6.77;;
870;SDS011;422;51.280;7.236;2022-10-03T19:23:45;8.27;;;6.57;;
870;SDS011;422;51.280;7.236;2022-10-03T19:26:21;8.80;;;6.20;;
870;SDS011;422;51.280;7.236;2022-10-03T19:28:53;15.30;;;9.87;;
870;SDS011;422;51.280;7.236;2022-10-03T19:31:27;8.40;;;7.50;;
870;SDS011;422;51.280;7.236;2022-10-03T19:34:00;12.93;;;6.90;;
870;SDS011;422;51.280;7.236;2022-10-03T19:36:33;8.77;;;6.93;;
870;SDS011;422;51.280;7.236;2022-10-03T19:39:03;8.87;;;6.87;;
870;SDS011;422;51.280;7.236;2022-10-03T19:41:41;10.27;;;6.93;;
870;SDS011;422;51.280;7.236;2022-10-03T19:44:16;10.03;;;7.00;;
870;SDS011;422;51.280;7.236;2022-10-03T19:46:48;10.20;;;8.23;;
870;SDS011;422;51.280;7.236;2022-10-03T19:49:26;12.47;;;8.63;;
870;SDS011;422;51.280;7.236;2022-10-03T19:52:25;11.57;;;8.30;;
870;SDS011;422;51.280;7.236;2022-10-03T19:54:58;12.90;;;8.77;;
870;SDS011;422;51.280;7.236;2022-10-03T19:57:37;10.10;;;8.33;;
870;SDS011;422;51.280;7.236;2022-10-03T20:00:23;12.43;;;7.60;;
870;SDS011;422;51.280;7.236;2022-10-03T20:03:03;8.73;;;7.60;;
870;SDS011;422;51.280;7.236;2022-10-03T20:05:42;8.23;;;6.97;;
870;SDS011;422;51.280;7.236;2022-10-03T20:08:21;12.50;;;8.30;;
870;SDS011;422;51.280;7.236;2022-10-03T20:11:01;8.33;;;6.67;;
870;SDS011;422;51.280;7.236;2022-10-03T20:13:39;9.53;;;7.67;;
870;SDS011;422;51.280;7.236;2022-10-03T20:16:12;151.80;;;79.80;;
870;SDS011;422;51.280;7.236;2022-10-03T20:18:50;80.50;;;43.80;;
870;SDS011;422;51.280;7.236;2022-10-03T20:21:26;49.13;;;29.97;;
870;SDS011;422;51.280;7.236;2022-10-03T20:23:59;25.63;;;17.20;;
870;SDS011;422;51.280;7.236;2022-10-03T20:26:34;15.87;;;10.60;;
870;SDS011;422;51.280;7.236;2022-10-03T20:29:08;9.43;;;7.80;;
870;SDS011;422;51.280;7.236;2022-10-03T20:31:42;9.80;;;7.30;;
870;SDS011;422;51.280;7.236;2022-10-03T20:34:11;20.53;;;8.30;;
870;SDS011;422;51.280;7.236;2022-10-03T20:36:42;24.20;;;7.40;;
870;SDS011;422;51.280;7.236;2022-10-03T20:39:14;9.23;;;7.43;;
870;SDS011;422;51.280;7.236;2022-10-03T20:41:50;10.03;;;6.83;;
870;SDS011;422;51.280;7.236;2022-10-03T20:44:27;8.17;;;6.87;;